Time;durP1;ratioP1;P1;durP2;ratioP2;P2;SDS_P1;SDS_P2;PMS_P1;PMS_P2;Temp;Humidity;BMP_temperature;BMP_pressure;BME280_temperature;BME280_humidity;BME280_pressure;Samples;Min_cycle;Max_cycle;Signal;HPM_P1;HPM_P2
2021/04/06 00:00:43;;;;;;;8.98;5.40;;;4.70;61.90;;;;;;5033631;28;20057;-76
2021/04/06 00:03:14;;;;;;;7.82;4.95;;;4.70;62.20;;;;;;5034545;28;20440;-76
2021/04/06 00:05:41;;;;;;;8.57;5.45;;;4.70;62.30;;;;;;5033779;28;20466;-75
2021/04/06 00:08:08;;;;;;;8.07;5.30;;;4.70;62.40;;;;;;5033368;28;20525;-75
2021/04/06 00:10:51;;;;;;;7.13;5.20;;;4.70;62.40;;;;;;5050072;28;20068;-75
2021/04/06 00:13:18;;;;;;;9.60;5.22;;;4.70;62.40;;;;;;5034199;28;20456;-76
2021/04/06 00:15:46;;;;;;;8.68;5.38;;;4.70;62.50;;;;;;5034575;28;20025;-76
2021/04/06 00:18:16;;;;;;;8.68;5.97;;;4.60;62.70;;;;;;5034579;28;20037;-75
2021/04/06 00:20:44;;;;;;;9.35;5.60;;;4.60;62.80;;;;;;5032334;28;20136;-76
2021/04/06 00:23:11;;;;;;;10.18;5.60;;;4.60;62.90;;;;;;5034408;28;20507;-76
2021/04/06 00:25:41;;;;;;;8.93;5.78;;;4.60;63.10;;;;;;5033455;28;20112;-75
2021/04/06 00:28:10;;;;;;;8.60;5.95;;;4.60;63.50;;;;;;5033483;28;20025;-76
2021/04/06 00:30:37;;;;;;;9.98;5.72;;;4.70;63.50;;;;;;5034710;28;20017;-76
2021/04/06 00:33:06;;;;;;;10.45;6.07;;;4.70;63.60;;;;;;5033160;28;20472;-76
2021/04/06 00:35:34;;;;;;;11.52;6.45;;;4.70;63.80;;;;;;5034040;28;20018;-76
2021/04/06 00:38:04;;;;;;;9.35;5.78;;;4.70;64.00;;;;;;5034175;28;20029;-76
2021/04/06 00:40:33;;;;;;;9.15;6.22;;;4.70;64.30;;;;;;5033945;28;20468;-76
2021/04/06 00:43:04;;;;;;;9.07;6.07;;;4.70;64.60;;;;;;5033702;28;20049;-76
2021/04/06 00:45:32;;;;;;;11.80;6.53;;;4.70;64.90;;;;;;5032819;28;20033;-75
2021/04/06 00:48:00;;;;;;;12.63;6.82;;;4.70;65.30;;;;;;5032691;28;20037;-76
2021/04/06 00:50:34;;;;;;;10.20;6.57;;;4.70;65.70;;;;;;5034306;28;20088;-76
2021/04/06 00:53:00;;;;;;;9.82;6.22;;;4.70;66.10;;;;;;5033829;28;20033;-76
2021/04/06 00:55:34;;;;;;;11.68;6.90;;;4.80;66.70;;;;;;5032855;28;20055;-76
2021/04/06 00:58:00;;;;;;;11.57;6.70;;;4.70;67.10;;;;;;5032386;28;20029;-76
2021/04/06 01:00:29;;;;;;;15.32;8.13;;;4.80;67.60;;;;;;5033865;28;20026;-75
2021/04/06 01:03:03;;;;;;;11.63;7.95;;;4.80;67.90;;;;;;5032242;28;20487;-77
2021/04/06 01:05:34;;;;;;;11.80;7.35;;;4.80;67.90;;;;;;5048745;28;20029;-76
2021/04/06 01:08:05;;;;;;;12.05;7.05;;;4.80;68.20;;;;;;5032090;28;20029;-75
2021/04/06 01:10:33;;;;;;;11.27;7.35;;;4.90;68.50;;;;;;5032526;28;20060;-75
2021/04/06 01:12:58;;;;;;;10.68;7.50;;;4.90;68.80;;;;;;5031992;28;20030;-76
2021/04/06 01:15:26;;;;;;;13.52;7.47;;;4.90;69.20;;;;;;5033965;28;20105;-76
2021/04/06 01:17:52;;;;;;;11.55;7.95;;;4.90;69.40;;;;;;5032424;28;20124;-75
2021/04/06 01:20:19;;;;;;;13.05;8.40;;;5.00;69.50;;;;;;5033477;28;20026;-76
2021/04/06 01:22:47;;;;;;;13.30;8.43;;;4.90;69.70;;;;;;5032262;28;20095;-76
2021/04/06 01:25:17;;;;;;;13.45;8.50;;;4.90;69.70;;;;;;5048418;28;20025;-76
2021/04/06 01:27:43;;;;;;;13.93;8.95;;;5.00;70.00;;;;;;5033485;28;20029;-75
2021/04/06 01:30:10;;;;;;;13.32;8.23;;;4.90;70.00;;;;;;5030137;28;20052;-76
2021/04/06 01:32:36;;;;;;;13.80;7.70;;;4.90;70.00;;;;;;5033531;28;20022;-75
2021/04/06 01:35:06;;;;;;;12.50;7.40;;;4.90;70.20;;;;;;5039952;28;20511;-75
2021/04/06 01:37:32;;;;;;;12.25;8.32;;;4.90;70.50;;;;;;5042993;28;20483;-76
2021/04/06 01:39:59;;;;;;;13.07;8.23;;;4.80;70.70;;;;;;5029712;28;20033;-76
2021/04/06 01:42:29;;;;;;;15.45;8.98;;;4.80;70.80;;;;;;5033285;28;20096;-75
2021/04/06 01:44:58;;;;;;;21.33;9.98;;;4.80;71.00;;;;;;5032652;28;20026;-77
2021/04/06 01:47:26;;;;;;;32.75;13.43;;;4.80;71.20;;;;;;5033072;28;20057;-76
2021/04/06 01:49:52;;;;;;;41.38;14.13;;;4.70;71.30;;;;;;5033299;28;20049;-75
2021/04/06 01:52:18;;;;;;;84.80;24.15;;;4.70;71.30;;;;;;5031709;28;20021;-75
2021/04/06 01:54:54;;;;;;;76.82;23.77;;;4.70;71.50;;;;;;5033035;28;20479;-75
2021/04/06 01:57:26;;;;;;;28.20;11.80;;;4.70;71.50;;;;;;5048122;28;20045;-76
2021/04/06 01:59:59;;;;;;;21.08;10.63;;;4.70;71.80;;;;;;5048465;28;20434;-76
2021/04/06 02:02:29;;;;;;;21.92;12.52;;;4.70;72.10;;;;;;5043316;28;20539;-76
2021/04/06 02:04:58;;;;;;;15.63;8.77;;;4.70;72.30;;;;;;5024570;28;20053;-77
2021/04/06 02:07:33;;;;;;;15.15;9.27;;;4.60;72.50;;;;;;5028250;28;20025;-76
2021/04/06 02:09:59;;;;;;;17.63;9.65;;;4.60;72.90;;;;;;5031415;28;20049;-76
2021/04/06 02:12:25;;;;;;;14.48;8.40;;;4.60;72.90;;;;;;5024023;28;20033;-75
2021/04/06 02:14:56;;;;;;;14.55;10.02;;;4.60;73.20;;;;;;5027978;28;20026;-75
2021/04/06 02:17:22;;;;;;;15.32;9.73;;;4.60;73.70;;;;;;5028751;28;20029;-75
2021/04/06 02:19:48;;;;;;;13.90;8.98;;;4.50;73.70;;;;;;5024066;28;20033;-75
2021/04/06 02:22:20;;;;;;;17.65;9.60;;;4.50;73.90;;;;;;5024796;28;20040;-75
2021/04/06 02:24:53;;;;;;;15.95;9.40;;;4.50;74.20;;;;;;5026712;28;20108;-76
2021/04/06 02:27:20;;;;;;;15.25;10.10;;;4.50;74.40;;;;;;5033152;28;20018;-76
2021/04/06 02:29:51;;;;;;;18.60;9.07;;;4.40;74.40;;;;;;5032540;28;20017;-76
2021/04/06 02:32:19;;;;;;;15.73;10.65;;;4.40;74.90;;;;;;5025582;28;20021;-75
2021/04/06 02:34:50;;;;;;;14.13;9.38;;;4.40;74.90;;;;;;5031731;28;20087;-76
2021/04/06 02:37:28;;;;;;;18.67;9.95;;;4.30;75.00;;;;;;5014965;28;20109;-75
2021/04/06 02:39:55;;;;;;;16.80;9.77;;;4.30;75.30;;;;;;5030443;28;20369;-76
2021/04/06 02:42:30;;;;;;;16.85;10.25;;;4.30;75.90;;;;;;5032679;28;20025;-75
2021/04/06 02:45:08;;;;;;;17.75;11.38;;;4.30;75.80;;;;;;5032676;28;20017;-77
2021/04/06 02:47:38;;;;;;;18.35;10.98;;;4.20;76.20;;;;;;5047987;28;20061;-76
2021/04/06 02:50:06;;;;;;;16.50;10.80;;;4.20;76.40;;;;;;5032893;28;20067;-76
2021/04/06 02:52:32;;;;;;;18.45;11.82;;;4.20;76.70;;;;;;5036248;28;20372;-75
2021/04/06 02:54:58;;;;;;;17.27;10.52;;;4.20;76.80;;;;;;5035673;28;20032;-76
2021/04/06 02:57:26;;;;;;;17.77;11.05;;;4.20;77.00;;;;;;5036128;28;20418;-76
2021/04/06 02:59:52;;;;;;;20.70;12.05;;;4.20;77.20;;;;;;5037187;28;20053;-76
2021/04/06 03:02:19;;;;;;;18.08;10.13;;;4.20;77.20;;;;;;5035137;28;20453;-76
2021/04/06 03:04:46;;;;;;;18.52;11.70;;;4.10;77.30;;;;;;5051224;28;20112;-76
2021/04/06 03:07:23;;;;;;;19.23;11.23;;;4.10;77.60;;;;;;5034337;28;20026;-75
2021/04/06 03:09:59;;;;;;;16.63;11.55;;;4.10;77.80;;;;;;5051484;28;20026;-76
2021/04/06 03:12:30;;;;;;;16.10;10.40;;;4.10;78.00;;;;;;5051009;28;20025;-76
2021/04/06 03:14:58;;;;;;;17.20;11.27;;;4.10;78.20;;;;;;5050878;28;20029;-76
2021/04/06 03:17:25;;;;;;;19.58;11.93;;;4.10;78.40;;;;;;5050943;28;20101;-76
2021/04/06 03:19:58;;;;;;;15.68;10.65;;;4.10;78.30;;;;;;5034434;28;20029;-78
2021/04/06 03:22:28;;;;;;;17.75;10.77;;;4.10;78.60;;;;;;5032640;28;20030;-80
2021/04/06 03:24:55;;;;;;;17.98;10.93;;;4.10;78.90;;;;;;5034892;28;20064;-79
2021/04/06 03:27:30;;;;;;;16.35;9.23;;;4.10;79.20;;;;;;5034897;28;20061;-77
2021/04/06 03:30:01;;;;;;;19.77;11.35;;;4.10;79.50;;;;;;5033970;28;20025;-76
2021/04/06 03:32:27;;;;;;;17.55;10.07;;;4.20;80.60;;;;;;5047498;28;20083;-76
2021/04/06 03:34:53;;;;;;;16.83;9.95;;;4.30;80.40;;;;;;5027257;28;20426;-77
2021/04/06 03:37:21;;;;;;;16.88;10.98;;;4.30;80.40;;;;;;5034829;28;20022;-77
2021/04/06 03:39:47;;;;;;;16.67;11.02;;;4.50;80.80;;;;;;5035122;28;20049;-77
2021/04/06 03:42:24;;;;;;;16.42;10.15;;;4.60;80.60;;;;;;5035130;28;20026;-77
2021/04/06 03:44:50;;;;;;;16.70;10.10;;;4.80;80.50;;;;;;5023135;28;21338;-78
2021/04/06 03:47:16;;;;;;;16.10;10.95;;;5.00;80.20;;;;;;5043661;28;20029;-78
2021/04/06 03:49:48;;;;;;;16.25;11.75;;;5.20;80.10;;;;;;5024409;28;20473;-77
2021/04/06 03:52:15;;;;;;;21.00;10.85;;;5.40;79.30;;;;;;5039207;28;20379;-80
2021/04/06 03:54:46;;;;;;;17.38;10.80;;;5.60;79.00;;;;;;5030606;28;20033;-76
2021/04/06 03:57:30;;;;;;;15.27;10.05;;;5.90;78.40;;;;;;5046485;28;20080;-76
2021/04/06 03:59:56;;;;;;;16.67;10.38;;;6.10;77.90;;;;;;5030197;28;20041;-80
2021/04/06 04:02:22;;;;;;;14.10;8.68;;;6.40;77.20;;;;;;5033552;28;20361;-82
2021/04/06 04:04:49;;;;;;;15.13;9.25;;;6.60;76.50;;;;;;5030333;28;20025;-82
2021/04/06 04:07:15;;;;;;;14.98;10.07;;;6.90;75.80;;;;;;5032504;28;20050;-82
2021/04/06 04:09:41;;;;;;;13.75;9.65;;;7.10;74.90;;;;;;5039964;28;20428;-82
2021/04/06 04:12:07;;;;;;;13.48;7.95;;;7.30;74.30;;;;;;5015521;28;20080;-81
2021/04/06 04:14:32;;;;;;;15.13;8.65;;;7.50;73.90;;;;;;5019455;28;20508;-81
2021/04/06 04:16:58;;;;;;;13.57;9.15;;;7.60;72.50;;;;;;5044073;28;20029;-82
2021/04/06 04:19:24;;;;;;;12.90;9.02;;;7.60;71.80;;;;;;5029316;28;20044;-83
2021/04/06 04:21:50;;;;;;;14.65;9.98;;;7.60;71.70;;;;;;5027424;28;20034;-82
2021/04/06 04:24:15;;;;;;;15.55;10.23;;;7.60;71.50;;;;;;5048042;28;20075;-82
2021/04/06 04:26:41;;;;;;;14.85;9.82;;;7.60;71.90;;;;;;5047491;28;20381;-83
2021/04/06 04:29:07;;;;;;;16.33;10.73;;;7.80;72.00;;;;;;5029434;28;20396;-81
2021/04/06 04:31:33;;;;;;;13.95;8.88;;;8.00;71.90;;;;;;5030836;28;20026;-81
2021/04/06 04:33:58;;;;;;;13.63;9.70;;;8.20;71.40;;;;;;5045205;28;20049;-79
2021/04/06 04:36:24;;;;;;;14.00;10.00;;;8.40;70.80;;;;;;5029451;28;20102;-80
2021/04/06 04:38:50;;;;;;;12.00;8.02;;;8.60;70.60;;;;;;5029022;28;20384;-81
2021/04/06 04:41:16;;;;;;;16.70;8.43;;;8.90;69.70;;;;;;5032950;28;20021;-80
2021/04/06 04:43:41;;;;;;;12.57;9.35;;;8.90;68.80;;;;;;5032221;28;20028;-79
2021/04/06 04:46:07;;;;;;;11.52;8.48;;;8.70;67.90;;;;;;5032329;28;20468;-79
2021/04/06 04:48:33;;;;;;;13.02;8.68;;;8.60;67.60;;;;;;5032802;28;20069;-80
2021/04/06 04:50:58;;;;;;;14.32;9.35;;;8.50;68.50;;;;;;5025053;28;20037;-80
2021/04/06 04:53:24;;;;;;;12.90;8.88;;;8.50;68.20;;;;;;5030862;28;20026;-78
2021/04/06 04:55:50;;;;;;;13.50;9.88;;;8.60;69.30;;;;;;5033938;28;20435;-78
2021/04/06 04:58:16;;;;;;;16.63;8.98;;;8.90;69.20;;;;;;5019293;28;20057;-74
2021/04/06 05:00:41;;;;;;;12.30;8.95;;;9.10;68.00;;;;;;5034607;28;20026;-78
2021/04/06 05:03:07;;;;;;;11.68;8.27;;;9.10;67.30;;;;;;5030951;28;20505;-79
2021/04/06 05:05:33;;;;;;;18.40;10.38;;;9.20;66.70;;;;;;5028138;28;20068;-79
2021/04/06 05:07:58;;;;;;;12.43;8.77;;;9.10;66.50;;;;;;5044329;28;20026;-80
2021/04/06 05:10:24;;;;;;;12.43;9.27;;;8.90;66.80;;;;;;5024054;28;20021;-76
2021/04/06 05:12:50;;;;;;;13.90;9.68;;;8.80;67.20;;;;;;5039553;28;20451;-77
2021/04/06 05:15:17;;;;;;;17.75;9.77;;;9.10;68.40;;;;;;5030928;28;20379;-76
2021/04/06 05:17:43;;;;;;;14.43;10.30;;;9.40;68.10;;;;;;5024778;28;20034;-77
2021/04/06 05:20:10;;;;;;;14.05;6.53;;;9.80;66.70;;;;;;5026529;28;20056;-77
2021/04/06 05:22:36;;;;;;;13.55;10.15;;;10.10;65.70;;;;;;5029572;28;20152;-76
2021/04/06 05:25:04;;;;;;;13.38;8.80;;;10.30;64.70;;;;;;5029588;28;20030;-78
2021/04/06 05:27:30;;;;;;;12.80;8.32;;;10.50;63.70;;;;;;5028841;28;20108;-80
2021/04/06 05:29:55;;;;;;;13.57;7.13;;;10.70;63.10;;;;;;5021803;28;20113;-78
2021/04/06 05:32:21;;;;;;;11.23;7.53;;;10.90;62.50;;;;;;5028852;28;20022;-79
2021/04/06 05:34:47;;;;;;;13.50;7.72;;;11.00;62.10;;;;;;5019613;28;20075;-80
2021/04/06 05:37:13;;;;;;;12.23;7.18;;;11.20;61.50;;;;;;5028366;28;20930;-78
2021/04/06 05:39:38;;;;;;;14.23;8.77;;;11.30;60.80;;;;;;5027758;28;20033;-77
2021/04/06 05:42:04;;;;;;;16.67;10.25;;;11.40;60.40;;;;;;5028014;28;20484;-77
2021/04/06 05:44:30;;;;;;;13.82;7.75;;;11.70;60.30;;;;;;5014051;28;20113;-77
2021/04/06 05:46:59;;;;;;;20.95;10.38;;;12.10;60.70;;;;;;5018353;28;20030;-77
2021/04/06 05:49:30;;;;;;;15.20;8.60;;;12.30;58.80;;;;;;5020812;28;20044;-77
2021/04/06 05:51:56;;;;;;;19.58;9.70;;;12.50;57.80;;;;;;5028751;28;20036;-77
2021/04/06 05:54:23;;;;;;;15.38;8.65;;;12.60;57.60;;;;;;5031457;28;20034;-77
2021/04/06 05:56:49;;;;;;;11.68;7.47;;;12.80;57.40;;;;;;5030943;28;20026;-77
2021/04/06 05:59:14;;;;;;;9.73;6.78;;;13.10;57.00;;;;;;5031138;28;20050;-77
2021/04/06 06:01:42;;;;;;;18.13;9.38;;;13.30;55.80;;;;;;5026872;28;20036;-77
2021/04/06 06:04:18;;;;;;;11.88;7.20;;;13.40;55.00;;;;;;5040914;28;20079;-78
2021/04/06 06:06:45;;;;;;;8.60;5.60;;;13.50;54.40;;;;;;5027159;28;20052;-78
2021/04/06 06:09:13;;;;;;;11.10;7.45;;;13.50;54.50;;;;;;5030878;28;20040;-79
2021/04/06 06:12:02;;;;;;;10.23;5.95;;;13.50;53.80;;;;;;5025580;28;20383;-79
2021/04/06 06:14:31;;;;;;;14.68;9.38;;;13.50;54.00;;;;;;5031175;28;20056;-80
2021/04/06 06:17:10;;;;;;;32.75;17.13;;;13.50;54.10;;;;;;5026606;28;20476;-83
2021/04/06 06:19:36;;;;;;;30.15;19.30;;;13.70;54.40;;;;;;5029849;28;20041;-83
2021/04/06 06:22:17;;;;;;;17.63;11.23;;;14.00;54.80;;;;;;5031347;28;20040;-76
2021/04/06 06:25:00;;;;;;;16.05;11.88;;;14.30;53.30;;;;;;5025992;28;20025;-83
2021/04/06 06:30:28;;;;;;;29.10;25.95;;;14.80;52.10;;;;;;5032949;28;20037;-83
2021/04/06 06:33:27;;;;;;;39.35;33.15;;;14.50;51.30;;;;;;5026518;28;20041;-86
2021/04/06 06:35:56;;;;;;;31.80;23.60;;;14.50;52.70;;;;;;5032500;28;20044;-83
2021/04/06 06:38:31;;;;;;;19.52;15.75;;;14.60;52.00;;;;;;5034435;28;20684;-83
2021/04/06 06:41:11;;;;;;;14.88;10.07;;;14.70;51.70;;;;;;5034110;28;20033;-83
2021/04/06 06:43:39;;;;;;;17.60;10.07;;;14.50;51.70;;;;;;5051336;28;20022;-84
2021/04/06 06:46:19;;;;;;;12.57;9.48;;;14.50;52.40;;;;;;5035079;28;20079;-84
2021/04/06 06:48:56;;;;;;;17.60;11.80;;;14.60;52.40;;;;;;5022204;28;20032;-83
2021/04/06 06:51:29;;;;;;;10.25;6.35;;;14.90;52.60;;;;;;5051469;28;20029;-84
2021/04/06 06:53:56;;;;;;;9.68;7.07;;;15.20;51.40;;;;;;5034750;28;20384;-83
2021/04/06 06:56:38;;;;;;;12.05;7.57;;;15.20;50.40;;;;;;5035168;28;20021;-82
2021/04/06 06:59:05;;;;;;;9.05;6.68;;;15.10;51.00;;;;;;5034604;28;20056;-83
2021/04/06 07:01:33;;;;;;;14.45;7.65;;;15.10;50.80;;;;;;5036328;28;20380;-83
2021/04/06 07:04:02;;;;;;;10.48;6.95;;;14.90;51.90;;;;;;5035074;28;20029;-83
2021/04/06 07:06:28;;;;;;;9.23;5.82;;;15.10;51.90;;;;;;5051351;28;20021;-83
2021/04/06 07:08:55;;;;;;;10.45;6.38;;;15.50;52.10;;;;;;5042011;28;20018;-85
2021/04/06 07:11:22;;;;;;;12.93;9.75;;;15.90;50.10;;;;;;5059921;28;20021;-82
2021/04/06 07:13:51;;;;;;;14.35;8.45;;;16.10;50.20;;;;;;5034747;28;20026;-82
2021/04/06 07:16:18;;;;;;;10.88;7.97;;;16.40;49.60;;;;;;5034763;28;20029;-83
2021/04/06 07:18:44;;;;;;;9.85;6.30;;;16.70;49.60;;;;;;5035560;28;20038;-82
2021/04/06 07:21:12;;;;;;;9.88;7.30;;;16.60;48.50;;;;;;5034750;28;20025;-82
2021/04/06 07:23:49;;;;;;;14.23;7.93;;;16.60;49.00;;;;;;5036023;28;20043;-83
2021/04/06 07:26:17;;;;;;;11.35;7.35;;;16.80;49.10;;;;;;5051247;28;20026;-82
2021/04/06 07:28:43;;;;;;;13.35;7.75;;;16.80;48.50;;;;;;5034495;28;20033;-82
2021/04/06 07:31:10;;;;;;;10.98;6.88;;;16.80;48.30;;;;;;5035565;28;20438;-82
2021/04/06 07:33:39;;;;;;;9.27;6.13;;;16.90;47.80;;;;;;5036116;28;20115;-82
2021/04/06 07:36:06;;;;;;;14.77;8.82;;;17.10;47.80;;;;;;5034004;28;20423;-82
2021/04/06 07:38:35;;;;;;;10.63;6.80;;;17.10;47.40;;;;;;5035442;28;20036;-82
2021/04/06 07:41:02;;;;;;;11.10;7.45;;;17.10;47.10;;;;;;5033988;28;20037;-82
2021/04/06 07:43:29;;;;;;;11.77;7.38;;;17.20;47.00;;;;;;5021534;28;20026;-81
2021/04/06 07:45:55;;;;;;;11.10;8.20;;;17.20;46.80;;;;;;5035286;28;20060;-82
2021/04/06 07:48:50;;;;;;;9.05;6.50;;;17.10;46.70;;;;;;5034079;28;20468;-83
2021/04/06 07:51:22;;;;;;;8.50;5.53;;;16.90;46.70;;;;;;5021509;28;20033;-82
2021/04/06 07:53:57;;;;;;;11.40;7.72;;;16.80;47.00;;;;;;5022142;28;20025;-82
2021/04/06 07:56:50;;;;;;;10.18;7.53;;;16.70;47.30;;;;;;5050800;28;20036;-82
2021/04/06 07:59:19;;;;;;;12.27;7.85;;;16.60;47.20;;;;;;5024756;28;20076;-82
2021/04/06 08:02:08;;;;;;;10.00;6.82;;;16.40;47.60;;;;;;5035242;28;20030;-82
2021/04/06 08:04:39;;;;;;;8.45;5.35;;;16.60;47.90;;;;;;5034718;28;20037;-82
2021/04/06 08:07:35;;;;;;;12.73;8.93;;;16.90;47.40;;;;;;5034654;28;20065;-83
2021/04/06 08:10:13;;;;;;;10.55;9.05;;;17.20;47.70;;;;;;5021369;28;20570;-85
2021/04/06 08:12:38;;;;;;;12.82;9.20;;;17.50;47.30;;;;;;5050158;28;20033;-83
2021/04/06 08:15:08;;;;;;;15.18;10.20;;;17.70;46.30;;;;;;5038851;28;20021;-81
2021/04/06 08:17:33;;;;;;;10.68;8.38;;;17.10;45.70;;;;;;5041453;28;20472;-82
2021/04/06 08:20:18;;;;;;;10.82;8.57;;;16.70;46.80;;;;;;5035181;28;20037;-82
2021/04/06 08:22:51;;;;;;;16.25;9.75;;;16.80;47.10;;;;;;5050279;28;20364;-81
2021/04/06 08:25:20;;;;;;;11.07;7.72;;;17.00;47.60;;;;;;5033579;28;20444;-81
2021/04/06 08:27:49;;;;;;;10.60;7.15;;;17.30;46.70;;;;;;5021146;28;20025;-81
2021/04/06 08:30:29;;;;;;;16.17;9.15;;;17.50;46.10;;;;;;5034936;28;20029;-81
2021/04/06 08:32:58;;;;;;;12.35;8.35;;;17.40;45.60;;;;;;5016648;28;20472;-81
2021/04/06 08:35:45;;;;;;;11.07;7.68;;;17.50;45.70;;;;;;5043677;28;20381;-81
2021/04/06 08:38:24;;;;;;;12.70;7.95;;;17.50;44.80;;;;;;5022712;28;20120;-81
2021/04/06 08:40:52;;;;;;;10.38;7.53;;;17.50;45.10;;;;;;5035159;28;20480;-81
2021/04/06 08:43:21;;;;;;;10.55;7.55;;;17.20;45.20;;;;;;5049300;28;20025;-80
2021/04/06 08:45:58;;;;;;;32.40;11.65;;;17.00;45.50;;;;;;5033306;28;20065;-80
2021/04/06 08:48:46;;;;;;;16.92;9.35;;;16.60;46.00;;;;;;5048539;28;20059;-81
2021/04/06 08:51:30;;;;;;;7.38;5.10;;;17.00;46.90;;;;;;5034008;28;20055;-81
2021/04/06 08:54:18;;;;;;;10.73;7.03;;;17.30;45.50;;;;;;5017323;28;20029;-81
2021/04/06 08:56:54;;;;;;;9.60;6.57;;;17.30;45.00;;;;;;5030737;28;20379;-81
2021/04/06 08:59:22;;;;;;;11.70;6.85;;;17.10;45.20;;;;;;5032727;28;20086;-80
2021/04/06 09:02:16;;;;;;;11.57;5.55;;;16.80;44.90;;;;;;5032562;28;20064;-80
2021/04/06 09:04:47;;;;;;;7.68;6.43;;;16.60;45.70;;;;;;5034128;28;20383;-81
2021/04/06 09:07:21;;;;;;;7.43;4.78;;;16.70;46.20;;;;;;5048888;28;20025;-82
2021/04/06 09:10:03;;;;;;;8.50;5.20;;;17.30;45.90;;;;;;5049024;28;20030;-81
2021/04/06 09:12:34;;;;;;;8.85;4.60;;;17.70;44.60;;;;;;5032513;28;20029;-82
2021/04/06 09:15:00;;;;;;;7.50;4.53;;;17.60;44.10;;;;;;5032151;28;20025;-82
2021/04/06 09:17:40;;;;;;;11.25;5.68;;;17.70;43.20;;;;;;5031853;28;20028;-81
2021/04/06 09:20:12;;;;;;;6.25;4.63;;;17.80;43.30;;;;;;5033708;28;20487;-84
2021/04/06 09:22:39;;;;;;;11.45;5.93;;;17.90;42.90;;;;;;5045163;28;20022;-82
2021/04/06 09:25:28;;;;;;;9.20;4.53;;;18.10;43.40;;;;;;5032442;28;20049;-81
2021/04/06 09:27:55;;;;;;;5.78;3.80;;;18.10;42.90;;;;;;5013027;28;20032;-81
2021/04/06 09:30:32;;;;;;;6.65;5.07;;;18.10;42.10;;;;;;5026041;28;20053;-85
2021/04/06 09:33:03;;;;;;;7.43;4.22;;;17.90;41.30;;;;;;5033363;28;20025;-84
2021/04/06 09:35:29;;;;;;;16.10;5.03;;;18.10;41.90;;;;;;5032152;28;20060;-80
2021/04/06 09:37:58;;;;;;;7.45;5.15;;;17.60;41.70;;;;;;5048294;28;20029;-83
2021/04/06 09:40:31;;;;;;;9.20;5.90;;;17.00;42.70;;;;;;5031838;28;20510;-83
2021/04/06 09:42:59;;;;;;;14.10;6.13;;;16.40;44.30;;;;;;5048503;28;20492;-83
2021/04/06 09:45:26;;;;;;;9.18;5.63;;;16.10;44.30;;;;;;5031773;28;20029;-82
2021/04/06 09:47:51;;;;;;;6.53;4.70;;;15.90;44.60;;;;;;5032001;28;20053;-82
2021/04/06 09:50:19;;;;;;;9.23;4.50;;;15.90;44.70;;;;;;5031619;28;20052;-82
2021/04/06 09:52:45;;;;;;;6.85;4.22;;;16.00;43.70;;;;;;5031772;28;20554;-81
2021/04/06 09:55:12;;;;;;;7.32;4.78;;;15.90;43.60;;;;;;5047974;28;20064;-81
2021/04/06 09:57:40;;;;;;;9.25;5.43;;;15.90;43.70;;;;;;5031974;28;20033;-81
2021/04/06 10:00:12;;;;;;;10.40;5.60;;;15.80;43.70;;;;;;5031358;28;20170;-82
2021/04/06 10:02:39;;;;;;;12.93;7.32;;;15.50;43.50;;;;;;5032096;28;20387;-82
2021/04/06 10:05:17;;;;;;;16.08;7.72;;;15.30;44.00;;;;;;5032751;28;20018;-82
2021/04/06 10:07:49;;;;;;;15.70;6.82;;;15.10;44.90;;;;;;5031740;28;20050;-82
2021/04/06 10:10:26;;;;;;;10.35;6.85;;;15.00;45.70;;;;;;5031710;28;20079;-82
2021/04/06 10:12:53;;;;;;;11.50;6.60;;;15.20;45.80;;;;;;5031895;28;20478;-82
2021/04/06 10:15:23;;;;;;;9.50;5.78;;;15.30;45.80;;;;;;5032791;28;20485;-81
2021/04/06 10:17:51;;;;;;;15.60;6.28;;;15.30;45.20;;;;;;5032992;28;20029;-82
2021/04/06 10:20:37;;;;;;;8.02;5.45;;;15.20;45.40;;;;;;5033104;28;20029;-81
2021/04/06 10:23:02;;;;;;;10.55;7.32;;;15.10;45.80;;;;;;5031468;28;20036;-80
2021/04/06 10:25:37;;;;;;;11.95;5.57;;;15.00;45.80;;;;;;5032928;28;20030;-80
2021/04/06 10:28:09;;;;;;;7.67;6.00;;;15.00;46.40;;;;;;5034407;28;20111;-80
2021/04/06 10:30:46;;;;;;;7.05;3.70;;;15.30;46.40;;;;;;5034348;28;20468;-80
2021/04/06 10:33:24;;;;;;;5.50;3.20;;;15.40;45.30;;;;;;5032586;28;20029;-80
2021/04/06 10:36:19;;;;;;;7.53;3.90;;;15.20;45.50;;;;;;5033037;28;20435;-80
2021/04/06 10:38:45;;;;;;;6.70;4.93;;;15.10;45.50;;;;;;5028184;28;20053;-80
2021/04/06 10:41:16;;;;;;;5.82;3.40;;;15.20;46.20;;;;;;5032420;28;20041;-82
2021/04/06 10:43:46;;;;;;;7.63;4.55;;;15.80;45.20;;;;;;5031514;28;20025;-81
2021/04/06 10:46:14;;;;;;;5.68;3.95;;;15.80;44.30;;;;;;5031497;28;20021;-81
2021/04/06 10:49:09;;;;;;;7.68;3.67;;;16.20;45.00;;;;;;5047868;28;20383;-82
2021/04/06 10:51:35;;;;;;;10.77;3.10;;;16.60;43.50;;;;;;5032690;28;20047;-81
2021/04/06 10:54:09;;;;;;;4.32;2.90;;;16.60;42.90;;;;;;5032810;28;20025;-81
2021/04/06 10:56:50;;;;;;;6.78;3.72;;;16.50;43.10;;;;;;5032593;28;20021;-81
2021/04/06 10:59:33;;;;;;;8.05;4.10;;;16.20;42.40;;;;;;5031019;28;20501;-81
2021/04/06 11:02:00;;;;;;;12.60;7.15;;;15.90;43.00;;;;;;5031352;28;20033;-80
2021/04/06 11:04:28;;;;;;;29.33;12.50;;;15.50;44.20;;;;;;5032379;28;20025;-80
2021/04/06 11:06:59;;;;;;;13.98;6.47;;;15.30;44.80;;;;;;5047357;28;20035;-81
2021/04/06 11:09:34;;;;;;;8.30;4.70;;;15.20;45.20;;;;;;5031132;28;20033;-80
2021/04/06 11:12:01;;;;;;;5.53;4.38;;;15.20;45.60;;;;;;5034279;28;20080;-80
2021/04/06 11:14:28;;;;;;;4.93;3.45;;;15.80;45.30;;;;;;5034410;28;20395;-80
2021/04/06 11:16:54;;;;;;;4.82;3.20;;;16.00;43.80;;;;;;5035536;28;20530;-81
2021/04/06 11:19:35;;;;;;;8.70;3.88;;;16.00;43.90;;;;;;5035942;28;20030;-80
2021/04/06 11:22:08;;;;;;;5.05;2.75;;;16.00;43.50;;;;;;5034552;28;20038;-81
2021/04/06 11:24:34;;;;;;;9.50;4.05;;;15.70;43.50;;;;;;5036131;28;20026;-80
2021/04/06 11:27:02;;;;;;;5.35;4.07;;;15.70;44.10;;;;;;5034303;28;20112;-81
2021/04/06 11:29:31;;;;;;;6.38;3.47;;;16.20;44.70;;;;;;5034922;28;20025;-81
2021/04/06 11:31:59;;;;;;;8.23;3.80;;;16.60;42.70;;;;;;5035700;28;20105;-80
2021/04/06 11:34:26;;;;;;;5.05;3.60;;;16.50;42.80;;;;;;5041665;28;20043;-83
2021/04/06 11:36:52;;;;;;;7.70;2.80;;;16.20;42.60;;;;;;5035808;28;20438;-80
2021/04/06 11:39:24;;;;;;;4.78;3.13;;;15.90;43.00;;;;;;5030057;28;20128;-80
2021/04/06 11:41:49;;;;;;;3.88;2.67;;;15.80;43.50;;;;;;5034523;28;20072;-80
2021/04/06 11:44:17;;;;;;;5.78;2.30;;;15.60;44.20;;;;;;5034406;28;20083;-80
2021/04/06 11:46:44;;;;;;;6.78;2.33;;;15.50;44.40;;;;;;5034066;28;20026;-80
2021/04/06 11:49:11;;;;;;;4.82;2.15;;;15.40;44.30;;;;;;5034237;28;20120;-81
2021/04/06 11:51:37;;;;;;;6.82;2.70;;;15.30;44.70;;;;;;5034998;28;20032;-81
2021/04/06 11:54:05;;;;;;;6.13;2.70;;;15.20;44.90;;;;;;5035337;28;20379;-80
2021/04/06 11:56:31;;;;;;;6.35;2.50;;;15.10;45.20;;;;;;5035154;28;20032;-80
2021/04/06 11:58:56;;;;;;;8.02;2.78;;;14.90;45.30;;;;;;5033473;28;20049;-80
2021/04/06 12:01:22;;;;;;;8.05;3.33;;;14.90;45.30;;;;;;5033944;28;20032;-81
2021/04/06 12:03:48;;;;;;;9.32;3.00;;;14.80;45.80;;;;;;5034766;28;20026;-80
2021/04/06 12:06:13;;;;;;;3.42;2.03;;;14.90;45.80;;;;;;5034971;28;20041;-79
2021/04/06 12:08:41;;;;;;;5.63;2.45;;;15.00;45.70;;;;;;5033700;28;20033;-79
2021/04/06 12:11:08;;;;;;;5.72;2.50;;;15.00;45.70;;;;;;5050209;28;20025;-80
2021/04/06 12:13:33;;;;;;;3.22;2.17;;;15.00;45.50;;;;;;5034900;28;20096;-81
2021/04/06 12:15:59;;;;;;;4.47;2.10;;;15.10;45.20;;;;;;5033797;28;20439;-81
2021/04/06 12:18:26;;;;;;;5.35;2.38;;;15.10;45.00;;;;;;5034749;28;20391;-81
2021/04/06 12:20:52;;;;;;;2.55;1.63;;;15.20;44.90;;;;;;5033328;28;20476;-81
2021/04/06 12:23:18;;;;;;;26.55;11.93;;;15.40;44.20;;;;;;5033304;28;20036;-80
2021/04/06 12:25:43;;;;;;;7.22;2.75;;;15.50;44.50;;;;;;5034262;28;20502;-80
2021/04/06 12:28:09;;;;;;;3.63;1.85;;;15.60;44.20;;;;;;5033289;28;20048;-81
2021/04/06 12:30:35;;;;;;;6.53;2.20;;;15.50;43.90;;;;;;5048806;28;20030;-80
2021/04/06 12:33:01;;;;;;;4.90;2.10;;;15.30;44.10;;;;;;5032933;28;20028;-81
2021/04/06 12:35:27;;;;;;;6.30;1.92;;;15.20;44.40;;;;;;5020039;28;20037;-80
2021/04/06 12:37:53;;;;;;;13.40;2.85;;;15.10;44.60;;;;;;5034008;28;20488;-80
2021/04/06 12:40:19;;;;;;;4.15;2.35;;;15.00;44.40;;;;;;5041481;28;20040;-80
2021/04/06 12:42:44;;;;;;;3.90;2.08;;;14.90;44.60;;;;;;5034638;28;20033;-80
2021/04/06 12:45:14;;;;;;;5.20;2.38;;;14.90;45.00;;;;;;5033882;28;20036;-81
2021/04/06 12:47:41;;;;;;;4.70;1.85;;;14.80;45.40;;;;;;5034476;28;20111;-80
2021/04/06 12:50:08;;;;;;;3.67;1.67;;;14.70;45.00;;;;;;5032930;28;20095;-80
2021/04/06 12:52:34;;;;;;;7.45;2.50;;;14.70;45.20;;;;;;5033380;28;20040;-81
2021/04/06 12:54:59;;;;;;;11.20;3.33;;;14.60;45.40;;;;;;5034062;28;20096;-81
2021/04/06 12:57:25;;;;;;;6.07;2.67;;;14.50;45.60;;;;;;5034487;28;20037;-80
2021/04/06 12:59:55;;;;;;;5.28;2.60;;;14.50;45.90;;;;;;5048839;28;20049;-82